createdAt,value
2022-08-26T00:02:12.604Z,26.43
2022-08-26T00:04:41.143Z,26.21
2022-08-26T00:07:09.452Z,26.09
2022-08-26T00:09:40.078Z,26.21
2022-08-26T00:12:12.420Z,26.16
2022-08-26T00:14:42.477Z,26.35
2022-08-26T00:17:10.476Z,26.48
2022-08-26T00:19:38.884Z,26.60
2022-08-26T00:22:06.600Z,26.66
2022-08-26T00:24:34.621Z,26.59
2022-08-26T00:27:03.092Z,26.56
2022-08-26T00:29:32.036Z,26.47
2022-08-26T00:32:06.455Z,26.43
2022-08-26T00:34:35.593Z,26.44
2022-08-26T00:37:03.866Z,26.43
2022-08-26T00:39:36.911Z,26.43
2022-08-26T00:42:04.631Z,26.38
2022-08-26T00:44:32.196Z,26.33
2022-08-26T00:47:05.244Z,26.15
2022-08-26T00:49:44.329Z,25.97
2022-08-26T00:52:19.110Z,25.96
2022-08-26T00:55:16.326Z,26.04
2022-08-26T00:57:51.129Z,26.09
2022-08-26T01:00:24.422Z,26.21
2022-08-26T01:02:52.376Z,26.26
2022-08-26T01:05:20.287Z,26.20
2022-08-26T01:07:48.281Z,26.22
2022-08-26T01:10:21.170Z,26.27
2022-08-26T01:12:58.224Z,26.16
2022-08-26T01:15:32.765Z,26.05
2022-08-26T01:18:03.084Z,26.01
2022-08-26T01:21:04.050Z,26.09
2022-08-26T01:23:36.179Z,26.08
2022-08-26T01:26:18.248Z,26.08
2022-08-26T01:28:51.537Z,25.94
2022-08-26T01:31:24.009Z,25.90
2022-08-26T01:34:10.975Z,25.88
2022-08-26T01:36:40.084Z,25.86
2022-08-26T01:39:08.766Z,26.00
2022-08-26T01:41:38.718Z,25.91
2022-08-26T01:44:10.006Z,25.84
2022-08-26T01:46:37.688Z,25.76
2022-08-26T01:49:08.264Z,25.67
2022-08-26T01:51:38.775Z,25.66
2022-08-26T01:54:11.974Z,25.57
2022-08-26T01:56:42.004Z,25.53
2022-08-26T01:59:14.447Z,25.66
2022-08-26T02:01:43.231Z,25.62
2022-08-26T02:04:40.976Z,25.60
2022-08-26T02:07:10.752Z,25.64
2022-08-26T02:09:41.430Z,25.58
2022-08-26T02:12:12.362Z,25.54
2022-08-26T02:14:50.130Z,25.56
2022-08-26T02:17:23.412Z,25.64
2022-08-26T02:19:51.634Z,25.76
2022-08-26T02:22:21.104Z,25.78
2022-08-26T02:24:56.497Z,25.73
2022-08-26T02:27:32.505Z,25.80
2022-08-26T02:30:10.532Z,25.74
2022-08-26T02:32:40.217Z,25.66
2022-08-26T02:35:11.113Z,25.68
2022-08-26T02:37:39.367Z,25.71
2022-08-26T02:40:12.161Z,25.87
2022-08-26T02:42:39.948Z,25.93
2022-08-26T02:45:11.011Z,25.80
2022-08-26T02:47:39.334Z,25.72
2022-08-26T02:50:07.567Z,25.68
2022-08-26T02:52:35.782Z,25.59
2022-08-26T02:55:05.141Z,25.54
2022-08-26T02:57:33.218Z,25.57
2022-08-26T03:00:01.426Z,25.51
2022-08-26T03:02:29.879Z,25.57
2022-08-26T03:05:02.021Z,25.61
2022-08-26T03:07:31.239Z,25.73
2022-08-26T03:09:59.490Z,25.67
2022-08-26T03:12:27.055Z,25.59
2022-08-26T03:14:55.105Z,25.51
2022-08-26T03:17:22.928Z,25.53
2022-08-26T03:19:57.080Z,25.32
2022-08-26T03:22:26.125Z,25.27
2022-08-26T03:24:54.984Z,25.32
2022-08-26T03:27:22.850Z,25.43
2022-08-26T03:30:09.278Z,25.45
2022-08-26T03:32:39.535Z,25.53
2022-08-26T03:35:09.976Z,25.56
2022-08-26T03:37:38.616Z,25.41
2022-08-26T03:40:10.581Z,25.16
2022-08-26T03:42:41.315Z,25.05
2022-08-26T03:45:14.295Z,24.90
2022-08-26T03:47:43.278Z,24.85
2022-08-26T03:50:14.249Z,24.86
2022-08-26T03:52:44.062Z,24.89
2022-08-26T03:55:13.269Z,24.89
2022-08-26T03:57:41.800Z,24.77
2022-08-26T04:00:15.077Z,24.84
2022-08-26T04:02:48.891Z,25.05
2022-08-26T04:05:19.939Z,25.06
2022-08-26T04:07:48.542Z,25.08
2022-08-26T04:10:19.440Z,25.07
2022-08-26T04:12:48.770Z,24.92
2022-08-26T04:15:17.860Z,24.76
2022-08-26T04:17:47.261Z,24.76
2022-08-26T04:20:16.281Z,24.74
2022-08-26T04:22:45.510Z,24.88
2022-08-26T04:25:14.186Z,25.02
2022-08-26T04:27:41.894Z,25.05
2022-08-26T04:30:10.483Z,24.99
2022-08-26T04:32:38.676Z,25.03
2022-08-26T04:35:07.099Z,24.93
2022-08-26T04:37:37.528Z,24.81
2022-08-26T04:40:06.754Z,24.71
2022-08-26T04:42:34.369Z,24.70
2022-08-26T04:45:05.858Z,24.82
2022-08-26T04:47:38.714Z,24.99
2022-08-26T04:50:08.391Z,25.10
2022-08-26T04:52:39.057Z,25.17
2022-08-26T04:55:08.513Z,25.22
2022-08-26T04:57:36.629Z,25.10
2022-08-26T05:00:13.437Z,25.07
2022-08-26T05:02:41.348Z,24.94
2022-08-26T05:05:12.418Z,24.84
2022-08-26T05:07:40.609Z,24.77
2022-08-26T05:10:09.608Z,24.84
2022-08-26T05:12:39.332Z,25.07
2022-08-26T05:15:10.313Z,25.25
2022-08-26T05:17:38.378Z,25.41
2022-08-26T05:20:06.861Z,25.41
2022-08-26T05:22:34.480Z,25.34
2022-08-26T05:25:02.585Z,25.23
2022-08-26T05:27:30.239Z,25.13
2022-08-26T05:29:59.296Z,25.29
2022-08-26T05:32:27.691Z,25.40
2022-08-26T05:34:57.695Z,25.46
2022-08-26T05:37:26.603Z,25.60
2022-08-26T05:39:54.168Z,25.83
2022-08-26T05:42:22.219Z,25.96
2022-08-26T05:44:56.078Z,26.12
2022-08-26T05:47:25.513Z,25.98
2022-08-26T05:49:53.220Z,25.89
2022-08-26T05:52:21.158Z,26.20
2022-08-26T05:54:52.434Z,26.15
2022-08-26T05:57:20.264Z,26.48
2022-08-26T05:59:51.864Z,26.67
2022-08-26T06:02:21.407Z,26.97
2022-08-26T06:04:49.841Z,27.04
2022-08-26T06:07:39.410Z,27.15
2022-08-26T06:10:30.952Z,26.95
2022-08-26T06:13:02.255Z,27.10
2022-08-26T06:15:46.393Z,27.34
2022-08-26T06:18:17.103Z,27.31
2022-08-26T06:20:57.195Z,27.31
2022-08-26T06:23:46.046Z,27.48
2022-08-26T06:26:16.564Z,27.55
2022-08-26T06:28:45.533Z,27.71
2022-08-26T06:31:15.411Z,27.94
2022-08-26T06:33:45.217Z,28.06
2022-08-26T06:36:25.731Z,28.17
2022-08-26T06:38:56.102Z,28.20
2022-08-26T06:41:25.772Z,27.99
2022-08-26T06:43:53.506Z,28.22
2022-08-26T06:46:22.519Z,28.44
2022-08-26T06:48:50.254Z,28.53
2022-08-26T06:51:24.818Z,28.41
2022-08-26T06:53:55.296Z,28.58
2022-08-26T06:56:26.137Z,28.75
2022-08-26T06:58:54.735Z,28.86
2022-08-26T07:01:30.409Z,28.87
2022-08-26T07:04:03.780Z,29.13
2022-08-26T07:06:39.046Z,29.01
2022-08-26T07:09:09.997Z,29.09
2022-08-26T07:11:39.813Z,29.17
2022-08-26T07:14:09.071Z,29.25
2022-08-26T07:16:37.409Z,29.18
2022-08-26T07:19:11.294Z,29.35
2022-08-26T07:21:43.399Z,29.57
2022-08-26T07:24:11.960Z,29.66
2022-08-26T07:26:43.056Z,29.61
2022-08-26T07:29:12.670Z,29.72
2022-08-26T07:31:42.805Z,29.88
2022-08-26T07:34:11.796Z,29.91
2022-08-26T07:36:39.816Z,29.98
2022-08-26T07:39:07.808Z,30.10
2022-08-26T07:41:36.627Z,30.16
2022-08-26T07:44:04.532Z,30.28
2022-08-26T07:46:32.162Z,30.29
2022-08-26T07:49:00.875Z,30.26
2022-08-26T07:51:28.624Z,30.29
2022-08-26T07:53:56.191Z,30.19
2022-08-26T07:56:24.716Z,30.44
2022-08-26T07:58:53.416Z,30.49
2022-08-26T08:01:24.342Z,30.59
2022-08-26T08:03:54.419Z,30.93
2022-08-26T08:06:27.152Z,30.50
2022-08-26T08:08:55.524Z,30.41
2022-08-26T08:11:26.642Z,30.51
2022-08-26T08:13:56.294Z,30.65
2022-08-26T08:16:32.287Z,30.44
2022-08-26T08:19:03.172Z,30.71
2022-08-26T08:21:31.692Z,30.55
2022-08-26T08:24:00.581Z,30.78
2022-08-26T08:26:28.208Z,30.89
2022-08-26T08:28:58.186Z,30.70
2022-08-26T08:31:55.816Z,31.00
2022-08-26T08:34:18.069Z,31.13
2022-08-26T08:36:46.838Z,31.21
2022-08-26T08:39:14.802Z,31.13
2022-08-26T08:41:48.702Z,31.18
2022-08-26T08:46:58.841Z,31.38
2022-08-26T08:49:28.430Z,31.62
2022-08-26T08:52:00.599Z,31.68
2022-08-26T08:54:30.081Z,31.80
2022-08-26T08:57:28.305Z,31.63
2022-08-26T09:00:09.226Z,31.71
2022-08-26T09:03:00.421Z,31.65
2022-08-26T09:05:40.141Z,31.92
2022-08-26T09:08:15.986Z,32.20
2022-08-26T09:10:59.586Z,31.97
2022-08-26T09:13:29.156Z,32.35
2022-08-26T09:16:07.354Z,32.07
2022-08-26T09:18:54.628Z,32.32
2022-08-26T09:21:25.236Z,32.27
2022-08-26T09:23:56.825Z,32.34
2022-08-26T09:26:42.469Z,32.24
2022-08-26T09:29:27.616Z,32.41
2022-08-26T09:32:22.116Z,32.13
2022-08-26T09:35:23.848Z,33.11
2022-08-26T09:40:35.573Z,34.01
2022-08-26T09:43:22.393Z,34.43
2022-08-26T09:46:09.315Z,35.26
2022-08-26T09:48:40.634Z,35.69
2022-08-26T09:51:24.681Z,36.40
2022-08-26T09:53:56.651Z,37.02
2022-08-26T09:56:39.760Z,36.91
2022-08-26T09:59:11.280Z,36.33
2022-08-26T10:01:42.827Z,37.35
2022-08-26T10:04:15.216Z,38.45
2022-08-26T10:07:03.598Z,38.64
2022-08-26T10:09:36.051Z,39.09
2022-08-26T10:12:06.537Z,38.84
2022-08-26T10:14:40.019Z,38.13
2022-08-26T10:17:26.707Z,38.15
2022-08-26T10:20:04.024Z,38.58
2022-08-26T10:22:48.043Z,39.06
2022-08-26T10:25:23.215Z,38.98
2022-08-26T10:28:08.149Z,39.03
2022-08-26T10:31:01.539Z,39.66
2022-08-26T10:33:29.777Z,39.56
2022-08-26T10:36:03.292Z,40.40
2022-08-26T10:38:40.539Z,39.81
2022-08-26T10:41:19.864Z,40.87
2022-08-26T10:43:55.788Z,41.46
2022-08-26T10:46:29.101Z,41.80
2022-08-26T10:49:07.105Z,42.06
2022-08-26T10:51:42.198Z,41.79
2022-08-26T10:54:34.902Z,40.98
2022-08-26T10:57:09.770Z,40.22
2022-08-26T11:00:30.182Z,39.99
2022-08-26T11:03:25.088Z,39.45
2022-08-26T11:06:17.952Z,39.94
2022-08-26T11:08:49.809Z,39.52
2022-08-26T11:11:40.095Z,39.60
2022-08-26T11:14:10.614Z,39.92
2022-08-26T11:16:44.269Z,40.21
2022-08-26T11:19:59.466Z,41.14
2022-08-26T11:22:38.147Z,41.72
2022-08-26T11:25:20.223Z,41.64
2022-08-26T11:27:54.453Z,41.25
2022-08-26T11:30:24.152Z,40.45
2022-08-26T11:32:55.013Z,39.76
2022-08-26T11:35:25.600Z,39.84
2022-08-26T11:38:29.800Z,40.36
2022-08-26T11:41:07.563Z,39.82
2022-08-26T11:43:38.423Z,38.41
2022-08-26T11:46:10.626Z,38.16
2022-08-26T11:48:43.578Z,38.09
2022-08-26T11:51:21.967Z,38.73
2022-08-26T11:53:51.223Z,39.12
2022-08-26T11:56:31.778Z,40.01
2022-08-26T11:59:02.340Z,41.58
2022-08-26T12:01:36.260Z,42.67
2022-08-26T12:04:07.547Z,42.21
2022-08-26T12:06:45.232Z,41.07
2022-08-26T12:09:25.002Z,40.99
2022-08-26T12:11:54.208Z,40.34
2022-08-26T12:14:27.710Z,40.36
2022-08-26T12:17:12.255Z,40.99
2022-08-26T12:19:40.981Z,40.88
2022-08-26T12:22:25.076Z,39.49
2022-08-26T12:24:59.108Z,39.31
2022-08-26T12:27:29.809Z,39.58
2022-08-26T12:30:20.352Z,40.71
2022-08-26T12:33:14.177Z,41.33
2022-08-26T12:35:56.592Z,42.11
2022-08-26T12:38:26.902Z,42.29
2022-08-26T12:40:56.917Z,42.37
2022-08-26T12:43:41.405Z,42.70
2022-08-26T12:46:13.266Z,42.97
2022-08-26T12:48:44.481Z,43.40
2022-08-26T12:51:26.835Z,42.85
2022-08-26T12:53:55.583Z,41.52
2022-08-26T12:56:35.389Z,42.20
2022-08-26T12:59:11.148Z,42.33
2022-08-26T13:01:44.381Z,42.49
2022-08-26T13:04:42.171Z,42.66
2022-08-26T13:07:25.049Z,42.80
2022-08-26T13:09:55.928Z,43.16
2022-08-26T13:12:25.029Z,44.04
2022-08-26T13:14:53.517Z,44.94
2022-08-26T13:17:21.475Z,44.86
2022-08-26T13:19:49.902Z,45.63
2022-08-26T13:22:23.035Z,45.70
2022-08-26T13:24:54.561Z,46.15
2022-08-26T13:27:26.121Z,45.75
2022-08-26T13:29:55.529Z,45.27
2022-08-26T13:32:27.369Z,46.16
2022-08-26T13:34:57.602Z,47.13
2022-08-26T13:37:34.474Z,45.79
2022-08-26T13:40:06.638Z,44.34
2022-08-26T13:42:34.711Z,44.86
2022-08-26T13:45:03.618Z,44.09
2022-08-26T13:47:33.272Z,45.82
2022-08-26T13:50:01.607Z,45.81
2022-08-26T13:52:31.124Z,47.69
2022-08-26T13:55:00.552Z,46.78
2022-08-26T13:57:30.380Z,47.85
2022-08-26T13:59:59.547Z,48.27
2022-08-26T14:02:28.489Z,49.00
2022-08-26T14:04:56.432Z,47.20
2022-08-26T14:07:24.425Z,48.33
2022-08-26T14:09:53.119Z,48.55
2022-08-26T14:12:20.718Z,47.51
2022-08-26T14:14:48.580Z,46.89
2022-08-26T14:17:21.356Z,46.47
2022-08-26T14:19:50.449Z,45.63
2022-08-26T14:22:22.208Z,46.22
2022-08-26T14:24:50.400Z,45.04
2022-08-26T14:27:18.036Z,45.33
2022-08-26T14:29:45.596Z,45.41
2022-08-26T14:32:24.263Z,45.46
2022-08-26T14:34:52.353Z,45.81
2022-08-26T14:37:20.529Z,46.23
2022-08-26T14:39:48.304Z,46.93
2022-08-26T14:42:22.984Z,47.48
2022-08-26T14:44:56.913Z,48.23
2022-08-26T14:47:25.331Z,48.42
2022-08-26T14:49:53.405Z,48.28
2022-08-26T14:52:21.452Z,48.24
2022-08-26T14:54:49.100Z,47.31
2022-08-26T14:57:22.581Z,47.22
2022-08-26T14:59:51.169Z,46.60
2022-08-26T15:02:30.855Z,45.74
2022-08-26T15:05:02.243Z,46.57
2022-08-26T15:07:31.025Z,45.26
2022-08-26T15:09:58.946Z,44.03
2022-08-26T15:12:27.818Z,42.34
2022-08-26T15:14:55.405Z,42.43
2022-08-26T15:17:24.193Z,42.59
2022-08-26T15:19:52.244Z,42.88
2022-08-26T15:22:20.373Z,43.36
2022-08-26T15:24:48.198Z,43.58
2022-08-26T15:27:21.243Z,43.05
2022-08-26T15:29:49.187Z,41.86
2022-08-26T15:32:16.756Z,41.66
2022-08-26T15:34:44.898Z,40.94
2022-08-26T15:37:12.733Z,40.44
2022-08-26T15:39:40.878Z,40.06
2022-08-26T15:42:08.380Z,39.25
2022-08-26T15:44:36.757Z,38.24
2022-08-26T15:47:04.622Z,37.58
2022-08-26T15:49:32.928Z,37.39
2022-08-26T15:52:00.444Z,37.06
2022-08-26T15:54:27.978Z,36.40
2022-08-26T15:56:57.201Z,36.43
2022-08-26T15:59:25.048Z,35.68
2022-08-26T16:01:52.667Z,35.30
2022-08-26T16:04:21.012Z,34.94
2022-08-26T16:06:50.386Z,34.65
2022-08-26T16:09:19.757Z,34.44
2022-08-26T16:11:47.674Z,34.38
2022-08-26T16:14:15.802Z,34.39
2022-08-26T16:16:43.269Z,33.73
2022-08-26T16:19:11.705Z,33.83
2022-08-26T16:21:40.481Z,33.72
2022-08-26T16:24:09.734Z,33.56
2022-08-26T16:26:38.895Z,33.49
2022-08-26T16:29:09.573Z,33.45
2022-08-26T16:31:38.363Z,33.46
2022-08-26T16:34:10.094Z,33.91
2022-08-26T16:36:39.105Z,35.05
2022-08-26T16:39:08.794Z,35.75
2022-08-26T16:41:36.504Z,36.38
2022-08-26T16:44:04.804Z,35.82
2022-08-26T16:46:34.330Z,35.21
2022-08-26T16:49:04.479Z,34.90
2022-08-26T16:51:32.584Z,34.77
2022-08-26T16:54:08.277Z,34.62
2022-08-26T16:56:36.660Z,35.15
2022-08-26T16:59:06.437Z,35.51
2022-08-26T17:01:34.518Z,35.20
2022-08-26T17:04:02.252Z,34.97
2022-08-26T17:06:30.253Z,34.39
2022-08-26T17:08:58.357Z,33.94
2022-08-26T17:11:26.303Z,33.60
2022-08-26T17:13:54.238Z,34.07
2022-08-26T17:16:26.415Z,34.01
2022-08-26T17:18:57.141Z,33.59
2022-08-26T17:21:25.848Z,33.25
2022-08-26T17:23:55.051Z,33.10
2022-08-26T17:26:22.672Z,33.12
2022-08-26T17:28:51.365Z,32.84
2022-08-26T17:31:19.614Z,32.96
2022-08-26T17:33:53.576Z,33.02
2022-08-26T17:36:27.608Z,32.82
2022-08-26T17:38:57.469Z,32.75
2022-08-26T17:41:25.972Z,32.45
2022-08-26T17:43:53.507Z,32.23
2022-08-26T17:46:21.474Z,32.34
2022-08-26T17:48:49.246Z,32.40
2022-08-26T17:51:19.390Z,32.42
2022-08-26T17:53:48.726Z,32.18
2022-08-26T17:56:18.798Z,31.98
2022-08-26T17:58:51.010Z,32.00
2022-08-26T18:01:26.137Z,31.94
2022-08-26T18:04:00.081Z,31.82
2022-08-26T18:06:30.608Z,31.72
2022-08-26T18:08:59.929Z,31.43
2022-08-26T18:11:28.376Z,31.57
2022-08-26T18:13:55.996Z,31.57
2022-08-26T18:16:24.441Z,31.34
2022-08-26T18:18:53.402Z,31.17
2022-08-26T18:21:24.832Z,31.20
2022-08-26T18:23:54.055Z,31.02
2022-08-26T18:26:26.256Z,30.87
2022-08-26T18:28:54.122Z,31.02
2022-08-26T18:31:21.721Z,31.02
2022-08-26T18:33:50.100Z,30.99
2022-08-26T18:36:27.386Z,31.01
2022-08-26T18:38:55.990Z,30.92
2022-08-26T18:41:26.422Z,30.83
2022-08-26T18:43:54.786Z,30.62
2022-08-26T18:46:25.337Z,30.59
2022-08-26T18:48:55.684Z,30.62
2022-08-26T18:51:26.994Z,30.48
2022-08-26T18:53:54.715Z,30.55
2022-08-26T18:56:23.463Z,30.61
2022-08-26T18:58:51.940Z,30.76
2022-08-26T19:01:23.247Z,30.65
2022-08-26T19:03:53.056Z,30.61
2022-08-26T19:06:23.990Z,30.70
2022-08-26T19:08:52.320Z,30.87
2022-08-26T19:11:31.794Z,30.68
2022-08-26T19:14:04.163Z,30.65
2022-08-26T19:16:31.762Z,30.54
2022-08-26T19:19:01.260Z,30.46
2022-08-26T19:21:29.798Z,30.35
2022-08-26T19:23:59.092Z,30.38
2022-08-26T19:26:27.593Z,30.20
2022-08-26T19:28:56.935Z,30.05
2022-08-26T19:31:25.219Z,29.94
2022-08-26T19:33:53.106Z,29.87
2022-08-26T19:36:24.799Z,29.69
2022-08-26T19:38:53.845Z,29.67
2022-08-26T19:41:36.674Z,29.77
2022-08-26T19:44:37.896Z,29.72
2022-08-26T19:47:08.265Z,29.74
2022-08-26T19:49:37.221Z,29.89
2022-08-26T19:52:06.058Z,29.99
2022-08-26T19:54:36.204Z,29.88
2022-08-26T19:57:04.494Z,29.77
2022-08-26T19:59:33.317Z,29.45
2022-08-26T20:02:01.992Z,29.41
2022-08-26T20:04:31.842Z,29.38
2022-08-26T20:07:01.022Z,29.38
2022-08-26T20:09:33.609Z,29.33
2022-08-26T20:12:03.080Z,29.31
2022-08-26T20:14:30.947Z,29.35
2022-08-26T20:16:58.603Z,29.21
2022-08-26T20:19:44.659Z,29.09
2022-08-26T20:22:13.166Z,28.92
2022-08-26T20:24:40.987Z,28.92
2022-08-26T20:27:09.704Z,28.96
2022-08-26T20:29:38.169Z,28.97
2022-08-26T20:32:07.037Z,29.00
2022-08-26T20:34:36.681Z,28.98
2022-08-26T20:37:05.216Z,28.78
2022-08-26T20:39:33.163Z,28.58
2022-08-26T20:42:01.292Z,28.74
2022-08-26T20:44:28.868Z,28.79
2022-08-26T20:46:59.148Z,28.67
2022-08-26T20:49:27.782Z,28.52
2022-08-26T20:51:56.136Z,28.39
2022-08-26T20:54:28.398Z,28.64
2022-08-26T20:56:57.802Z,28.66
2022-08-26T20:59:26.019Z,28.49
2022-08-26T21:01:53.820Z,28.37
2022-08-26T21:04:24.560Z,28.37
2022-08-26T21:06:53.188Z,28.19
2022-08-26T21:09:23.762Z,28.18
2022-08-26T21:11:53.129Z,28.36
2022-08-26T21:14:25.947Z,28.45
2022-08-26T21:16:54.209Z,28.55
2022-08-26T21:19:22.005Z,28.64
2022-08-26T21:21:50.349Z,28.75
2022-08-26T21:24:18.576Z,28.69
2022-08-26T21:26:46.824Z,28.20
2022-08-26T21:29:14.923Z,28.04
2022-08-26T21:31:46.526Z,27.78
2022-08-26T21:34:18.469Z,27.77
2022-08-26T21:36:47.974Z,27.72
2022-08-26T21:39:17.285Z,27.70
2022-08-26T21:41:46.205Z,27.82
2022-08-26T21:44:16.058Z,27.95
2022-08-26T21:46:45.112Z,28.12
2022-08-26T21:49:15.947Z,28.21
2022-08-26T21:51:47.450Z,28.10
2022-08-26T21:54:18.087Z,27.76
2022-08-26T21:56:47.231Z,27.57
2022-08-26T21:59:17.979Z,27.59
2022-08-26T22:01:46.308Z,27.56
2022-08-26T22:04:14.287Z,27.53
2022-08-26T22:06:47.260Z,27.63
2022-08-26T22:09:18.739Z,27.53
2022-08-26T22:11:47.487Z,27.35
2022-08-26T22:14:16.457Z,27.30
2022-08-26T22:16:50.217Z,27.23
2022-08-26T22:19:23.563Z,27.33
2022-08-26T22:21:54.034Z,27.26
2022-08-26T22:24:23.641Z,27.22
2022-08-26T22:26:52.026Z,27.17
2022-08-26T22:29:20.641Z,27.08
2022-08-26T22:31:48.318Z,27.21
2022-08-26T22:34:17.515Z,27.08
2022-08-26T22:36:47.921Z,27.23
2022-08-26T22:39:18.088Z,27.27
2022-08-26T22:41:48.527Z,27.06
2022-08-26T22:44:17.852Z,27.13
2022-08-26T22:46:47.340Z,27.20
2022-08-26T22:49:16.411Z,27.27
2022-08-26T22:51:46.377Z,27.39
2022-08-26T22:54:15.480Z,27.20
2022-08-26T22:56:45.268Z,27.06
2022-08-26T22:59:13.166Z,27.05
2022-08-26T23:01:43.703Z,26.94
2022-08-26T23:04:11.810Z,26.93
2022-08-26T23:06:43.117Z,26.94
2022-08-26T23:09:11.288Z,26.92
2022-08-26T23:11:43.114Z,26.85
2022-08-26T23:14:12.076Z,26.73
2022-08-26T23:16:44.372Z,26.62
2022-08-26T23:19:13.937Z,26.64
2022-08-26T23:21:41.756Z,26.61
2022-08-26T23:24:10.175Z,26.57
2022-08-26T23:26:40.099Z,26.62
2022-08-26T23:29:11.186Z,26.62
2022-08-26T23:31:40.804Z,26.71
2022-08-26T23:34:27.095Z,26.66
2022-08-26T23:36:57.959Z,26.74
2022-08-26T23:39:26.698Z,26.80
2022-08-26T23:41:54.249Z,26.87
2022-08-26T23:44:22.392Z,26.86
2022-08-26T23:46:50.567Z,26.88
2022-08-26T23:49:18.712Z,26.90
2022-08-26T23:52:04.824Z,26.87
2022-08-26T23:54:33.699Z,26.80
2022-08-26T23:57:01.926Z,26.59
2022-08-26T23:59:29.839Z,26.44
